Time;durP1;ratioP1;P1;durP2;ratioP2;P2;SDS_P1;SDS_P2;PMS_P1;PMS_P2;Temp;Humidity;BMP_temperature;BMP_pressure;BME280_temperature;BME280_humidity;BME280_pressure;Samples;Min_cycle;Max_cycle;Signal;HPM_P1;HPM_P2
2023/06/01 00:02:08;;;;;;;;;3.50;3.50;;;;;;;;4954634;28;46452;-72
2023/06/01 00:04:34;;;;;;;;;7.00;6.00;;;;;;;;4954187;28;46045;-72
2023/06/01 00:07:02;;;;;;;;;9.00;5.75;;;;;;;;4954928;28;45425;-72
2023/06/01 00:09:27;;;;;;;;;4.25;4.25;;;;;;;;4954303;28;45468;-72
2023/06/01 00:11:53;;;;;;;;;4.00;4.00;;;;;;;;4954722;28;45405;-72
2023/06/01 00:14:18;;;;;;;;;4.75;4.75;;;;;;;;4954258;28;45341;-71
2023/06/01 00:16:45;;;;;;;;;11.00;7.50;;;;;;;;4954684;28;45325;-72
2023/06/01 00:19:11;;;;;;;;;5.25;5.00;;;;;;;;4953550;28;45555;-72
2023/06/01 00:21:36;;;;;;;;;5.00;4.00;;;;;;;;4941529;28;47164;-72
2023/06/01 00:24:02;;;;;;;;;3.75;3.75;;;;;;;;4954613;28;45439;-72
2023/06/01 00:26:29;;;;;;;;;6.00;5.00;;;;;;;;4954738;28;45505;-71
2023/06/01 00:28:54;;;;;;;;;11.00;6.50;;;;;;;;4954290;28;45638;-72
2023/06/01 00:31:20;;;;;;;;;10.25;7.25;;;;;;;;4954781;28;45484;-72
2023/06/01 00:33:45;;;;;;;;;7.00;7.00;;;;;;;;4954340;28;45395;-72
2023/06/01 00:36:10;;;;;;;;;9.25;7.25;;;;;;;;4954337;28;45344;-72
2023/06/01 00:38:35;;;;;;;;;8.00;6.75;;;;;;;;4953475;28;45395;-72
2023/06/01 00:41:01;;;;;;;;;7.00;7.00;;;;;;;;4954293;28;45353;-72
2023/06/01 00:43:26;;;;;;;;;8.75;7.50;;;;;;;;4954628;28;45251;-71
2023/06/01 00:45:51;;;;;;;;;7.25;6.00;;;;;;;;4954501;28;45360;-72
2023/06/01 00:48:17;;;;;;;;;7.50;6.75;;;;;;;;4954452;28;45381;-72
2023/06/01 00:50:42;;;;;;;;;10.00;8.25;;;;;;;;4954042;28;45871;-71
2023/06/01 00:53:10;;;;;;;;;9.25;6.00;;;;;;;;4953918;28;45285;-71
2023/06/01 00:55:36;;;;;;;;;5.25;5.00;;;;;;;;4954662;28;46143;-71
2023/06/01 00:58:02;;;;;;;;;5.50;5.50;;;;;;;;4953281;28;45470;-71
2023/06/01 01:00:28;;;;;;;;;6.25;4.50;;;;;;;;4953802;28;45597;-71
2023/06/01 01:02:56;;;;;;;;;6.00;6.00;;;;;;;;4954126;28;45531;-71
2023/06/01 01:05:26;;;;;;;;;5.75;5.75;;;;;;;;4953079;28;45465;-71
2023/06/01 01:07:58;;;;;;;;;9.25;7.75;;;;;;;;4953882;28;45417;-71
2023/06/01 01:10:40;;;;;;;;;6.00;6.00;;;;;;;;4953704;28;45395;-71
2023/06/01 01:13:14;;;;;;;;;6.25;6.25;;;;;;;;4954154;28;45418;-72
2023/06/01 01:15:49;;;;;;;;;9.25;8.50;;;;;;;;4954314;28;45464;-71
2023/06/01 01:18:19;;;;;;;;;8.25;8.25;;;;;;;;4954076;28;45416;-71
2023/06/01 01:20:48;;;;;;;;;12.75;9.25;;;;;;;;4946201;28;47364;-72
2023/06/01 01:23:32;;;;;;;;;8.50;8.50;;;;;;;;4951859;28;45490;-71
2023/06/01 01:25:57;;;;;;;;;7.00;7.00;;;;;;;;4956038;28;45573;-71
2023/06/01 01:28:35;;;;;;;;;10.75;9.75;;;;;;;;4956948;28;45404;-72
2023/06/01 01:31:02;;;;;;;;;9.50;9.25;;;;;;;;4955711;28;46080;-72
2023/06/01 01:33:28;;;;;;;;;10.00;10.00;;;;;;;;4957000;28;45437;-71
2023/06/01 01:35:54;;;;;;;;;12.75;9.75;;;;;;;;4956680;28;45808;-73
2023/06/01 01:38:20;;;;;;;;;8.75;7.50;;;;;;;;4957076;28;45397;-71
2023/06/01 01:40:45;;;;;;;;;9.00;6.75;;;;;;;;4956917;28;45974;-72
2023/06/01 01:43:10;;;;;;;;;12.25;12.00;;;;;;;;4956854;28;45400;-71
2023/06/01 01:45:36;;;;;;;;;10.75;8.00;;;;;;;;4956810;28;45575;-71
2023/06/01 01:48:16;;;;;;;;;11.50;11.50;;;;;;;;4956614;28;45445;-71
2023/06/01 01:50:55;;;;;;;;;11.75;9.75;;;;;;;;4955581;28;47303;-71
2023/06/01 01:53:23;;;;;;;;;10.75;10.00;;;;;;;;4957251;28;45439;-71
2023/06/01 01:55:49;;;;;;;;;11.25;7.25;;;;;;;;4956531;28;45429;-70
2023/06/01 01:58:14;;;;;;;;;8.25;8.25;;;;;;;;4956975;28;45400;-70
2023/06/01 02:00:41;;;;;;;;;10.50;9.75;;;;;;;;4956155;28;45420;-72
2023/06/01 02:03:12;;;;;;;;;9.25;8.50;;;;;;;;4956432;28;45341;-70
2023/06/01 02:05:37;;;;;;;;;13.50;10.50;;;;;;;;4955448;28;45530;-71
2023/06/01 02:08:03;;;;;;;;;10.50;9.50;;;;;;;;4956615;28;45607;-71
2023/06/01 02:10:28;;;;;;;;;10.75;10.75;;;;;;;;4956294;28;47009;-71
2023/06/01 02:12:53;;;;;;;;;10.00;9.50;;;;;;;;4955703;28;45377;-71
2023/06/01 02:15:18;;;;;;;;;13.50;9.50;;;;;;;;4955184;28;45436;-71
2023/06/01 02:17:43;;;;;;;;;14.75;14.75;;;;;;;;4955918;28;45525;-71
2023/06/01 02:20:09;;;;;;;;;14.75;13.50;;;;;;;;4955323;28;47026;-71
2023/06/01 02:22:34;;;;;;;;;19.25;13.25;;;;;;;;4956229;28;45502;-72
2023/06/01 02:25:00;;;;;;;;;9.25;9.25;;;;;;;;4956362;28;45602;-72
2023/06/01 02:27:25;;;;;;;;;11.75;10.00;;;;;;;;4954940;28;45396;-72
2023/06/01 02:29:50;;;;;;;;;13.00;11.00;;;;;;;;4956134;28;47485;-73
2023/06/01 02:32:15;;;;;;;;;12.00;11.25;;;;;;;;4946177;28;45330;-72
2023/06/01 02:34:40;;;;;;;;;14.00;11.25;;;;;;;;4950673;28;45382;-72
2023/06/01 02:37:06;;;;;;;;;11.25;8.50;;;;;;;;4935138;28;45528;-72
2023/06/01 02:39:31;;;;;;;;;17.50;11.75;;;;;;;;4954106;28;46837;-71
2023/06/01 02:41:56;;;;;;;;;14.50;11.25;;;;;;;;4955947;28;45398;-72
2023/06/01 02:44:22;;;;;;;;;13.50;12.75;;;;;;;;4956135;28;45419;-71
2023/06/01 02:46:47;;;;;;;;;13.50;12.00;;;;;;;;4954731;28;45492;-71
2023/06/01 02:49:12;;;;;;;;;12.25;12.25;;;;;;;;4954258;28;46190;-71
2023/06/01 02:51:37;;;;;;;;;15.75;13.25;;;;;;;;4955827;28;45495;-71
2023/06/01 02:54:02;;;;;;;;;13.75;12.25;;;;;;;;4955717;28;45254;-71
2023/06/01 02:56:27;;;;;;;;;16.25;12.75;;;;;;;;4955555;28;45404;-71
2023/06/01 02:58:53;;;;;;;;;10.75;10.00;;;;;;;;4955917;28;46207;-71
2023/06/01 03:01:19;;;;;;;;;11.00;9.25;;;;;;;;4955268;28;45313;-71
2023/06/01 03:03:46;;;;;;;;;14.00;13.00;;;;;;;;4955484;28;45527;-71
2023/06/01 03:06:13;;;;;;;;;10.75;10.75;;;;;;;;4955651;28;45391;-71
2023/06/01 03:08:38;;;;;;;;;15.00;12.25;;;;;;;;4953692;28;47275;-70
2023/06/01 03:11:03;;;;;;;;;7.75;7.00;;;;;;;;4936124;28;45410;-71
2023/06/01 03:13:28;;;;;;;;;11.50;10.75;;;;;;;;4937256;28;45420;-71
2023/06/01 03:15:53;;;;;;;;;14.00;13.50;;;;;;;;4955320;28;45616;-71
2023/06/01 03:18:19;;;;;;;;;16.50;13.25;;;;;;;;4955305;28;47282;-71
2023/06/01 03:20:46;;;;;;;;;16.25;12.75;;;;;;;;4948085;28;45436;-71
2023/06/01 03:23:12;;;;;;;;;13.75;13.75;;;;;;;;4936029;28;45295;-69
2023/06/01 03:25:38;;;;;;;;;11.25;11.25;;;;;;;;4938318;28;45350;-69
2023/06/01 03:28:03;;;;;;;;;13.00;12.00;;;;;;;;4954829;28;46608;-69
2023/06/01 03:30:28;;;;;;;;;17.25;14.75;;;;;;;;4954982;28;45321;-69
2023/06/01 03:32:53;;;;;;;;;17.00;13.75;;;;;;;;4954944;28;45468;-69
2023/06/01 03:35:19;;;;;;;;;18.25;13.50;;;;;;;;4953912;28;45313;-70
2023/06/01 03:37:45;;;;;;;;;18.75;18.75;;;;;;;;4954368;28;46923;-70
2023/06/01 03:40:10;;;;;;;;;16.75;12.00;;;;;;;;4955314;28;45501;-69
2023/06/01 03:42:40;;;;;;;;;18.75;14.25;;;;;;;;4953701;28;45516;-69
2023/06/01 03:45:05;;;;;;;;;15.50;13.25;;;;;;;;4953001;28;45679;-69
2023/06/01 03:47:31;;;;;;;;;18.00;16.50;;;;;;;;4953528;28;46359;-69
2023/06/01 03:49:57;;;;;;;;;15.25;14.75;;;;;;;;4955125;28;45480;-69
2023/06/01 03:52:23;;;;;;;;;14.00;14.00;;;;;;;;4955334;28;45384;-69
2023/06/01 03:54:48;;;;;;;;;13.75;11.75;;;;;;;;4954298;28;45378;-69
2023/06/01 03:57:14;;;;;;;;;12.75;12.00;;;;;;;;4954019;28;47524;-69
2023/06/01 03:59:39;;;;;;;;;13.75;13.75;;;;;;;;4952810;28;45397;-70
2023/06/01 04:02:04;;;;;;;;;18.50;18.50;;;;;;;;4954127;28;45628;-69
2023/06/01 04:04:30;;;;;;;;;15.25;11.75;;;;;;;;4954141;28;45712;-69
2023/06/01 04:07:00;;;;;;;;;17.75;16.25;;;;;;;;4954519;28;45487;-69
2023/06/01 04:09:26;;;;;;;;;23.00;17.00;;;;;;;;4954777;28;45359;-70
2023/06/01 04:11:51;;;;;;;;;24.00;19.50;;;;;;;;4954665;28;45333;-70
2023/06/01 04:14:16;;;;;;;;;19.25;19.25;;;;;;;;4954861;28;45372;-70
2023/06/01 04:16:41;;;;;;;;;18.00;18.00;;;;;;;;4941010;28;48488;-70
2023/06/01 04:19:06;;;;;;;;;18.00;17.25;;;;;;;;4949891;28;45504;-70
2023/06/01 04:21:32;;;;;;;;;20.75;18.25;;;;;;;;4940881;28;45391;-70
2023/06/01 04:23:57;;;;;;;;;15.25;14.25;;;;;;;;4935133;28;45350;-70
2023/06/01 04:26:22;;;;;;;;;17.50;15.75;;;;;;;;4935326;28;46719;-70
2023/06/01 04:28:48;;;;;;;;;18.50;17.50;;;;;;;;4934846;28;45454;-70
2023/06/01 04:31:19;;;;;;;;;20.50;16.00;;;;;;;;4951247;28;45727;-71
2023/06/01 04:33:45;;;;;;;;;17.25;16.00;;;;;;;;4954596;28;45540;-70
2023/06/01 04:36:13;;;;;;;;;17.75;14.75;;;;;;;;4954366;28;45488;-70
2023/06/01 04:38:41;;;;;;;;;15.25;14.75;;;;;;;;4954441;28;45317;-70
2023/06/01 04:41:07;;;;;;;;;18.25;16.25;;;;;;;;4954330;28;45447;-70
2023/06/01 04:43:32;;;;;;;;;17.75;12.25;;;;;;;;4952523;28;45393;-70
2023/06/01 04:46:03;;;;;;;;;19.50;19.50;;;;;;;;4954196;28;45459;-70
2023/06/01 04:48:31;;;;;;;;;25.50;21.50;;;;;;;;4953855;28;45428;-70
2023/06/01 04:50:57;;;;;;;;;14.75;14.75;;;;;;;;4953440;28;45485;-70
2023/06/01 04:53:22;;;;;;;;;17.25;17.25;;;;;;;;4954723;28;45448;-70
2023/06/01 04:55:48;;;;;;;;;17.00;16.00;;;;;;;;4954352;28;45542;-70
2023/06/01 04:58:13;;;;;;;;;18.25;15.00;;;;;;;;4957252;28;45429;-70
2023/06/01 05:00:39;;;;;;;;;21.75;19.00;;;;;;;;4957260;28;45419;-70
2023/06/01 05:03:04;;;;;;;;;19.75;18.25;;;;;;;;4957699;28;45383;-72
2023/06/01 05:05:29;;;;;;;;;16.75;16.75;;;;;;;;4957706;28;46333;-70
2023/06/01 05:07:55;;;;;;;;;17.25;14.25;;;;;;;;4957400;28;45528;-70
2023/06/01 05:10:20;;;;;;;;;17.75;15.75;;;;;;;;4956457;28;45401;-71
2023/06/01 05:12:45;;;;;;;;;22.50;20.25;;;;;;;;4956721;28;45500;-70
2023/06/01 05:15:11;;;;;;;;;22.25;18.50;;;;;;;;4957304;28;45573;-70
2023/06/01 05:17:38;;;;;;;;;22.00;19.25;;;;;;;;4956894;28;45384;-70
2023/06/01 05:20:03;;;;;;;;;23.75;23.25;;;;;;;;4955559;28;45494;-71
2023/06/01 05:22:29;;;;;;;;;22.25;21.00;;;;;;;;4937950;28;45408;-70
2023/06/01 05:24:55;;;;;;;;;17.00;17.00;;;;;;;;4936239;28;45574;-70
2023/06/01 05:27:20;;;;;;;;;21.75;21.50;;;;;;;;4937118;28;45457;-70
2023/06/01 05:29:45;;;;;;;;;23.50;19.50;;;;;;;;4942079;28;45390;-70
2023/06/01 05:32:10;;;;;;;;;21.25;17.75;;;;;;;;4956797;28;45471;-71
2023/06/01 05:34:36;;;;;;;;;24.50;20.50;;;;;;;;4956876;28;46197;-70
2023/06/01 05:37:01;;;;;;;;;26.25;23.75;;;;;;;;4956187;28;45431;-72
2023/06/01 05:39:28;;;;;;;;;17.75;17.50;;;;;;;;4957649;28;45416;-71
2023/06/01 05:41:53;;;;;;;;;26.75;23.50;;;;;;;;4957143;28;45557;-71
2023/06/01 05:44:19;;;;;;;;;19.00;17.50;;;;;;;;4957481;28;47138;-71
2023/06/01 05:46:44;;;;;;;;;20.00;20.00;;;;;;;;4957915;28;45421;-71
2023/06/01 05:49:10;;;;;;;;;21.25;20.00;;;;;;;;4957644;28;45679;-70
2023/06/01 05:51:37;;;;;;;;;22.00;22.00;;;;;;;;4957442;28;45270;-71
2023/06/01 05:54:03;;;;;;;;;24.75;23.25;;;;;;;;4957583;28;45427;-71
2023/06/01 05:56:28;;;;;;;;;25.75;22.00;;;;;;;;4956542;28;45433;-70
2023/06/01 05:58:54;;;;;;;;;26.25;26.25;;;;;;;;4958166;28;45452;-70
2023/06/01 06:01:19;;;;;;;;;28.75;26.00;;;;;;;;4957475;28;45318;-70
2023/06/01 06:03:45;;;;;;;;;23.25;20.00;;;;;;;;4957405;28;45448;-70
2023/06/01 06:06:10;;;;;;;;;25.50;21.00;;;;;;;;4957131;28;45393;-71
2023/06/01 06:08:35;;;;;;;;;21.25;19.00;;;;;;;;4956749;28;45595;-70
2023/06/01 06:11:01;;;;;;;;;23.25;21.25;;;;;;;;4956919;28;45416;-71
2023/06/01 06:13:26;;;;;;;;;26.25;25.00;;;;;;;;4955850;28;47917;-71
2023/06/01 06:15:51;;;;;;;;;25.75;24.25;;;;;;;;4957061;28;45461;-70
2023/06/01 06:18:16;;;;;;;;;21.75;20.00;;;;;;;;4957188;28;45433;-70
2023/06/01 06:20:42;;;;;;;;;28.00;24.50;;;;;;;;4950441;28;45454;-70
2023/06/01 06:23:07;;;;;;;;;29.25;25.25;;;;;;;;4938130;28;46169;-71
2023/06/01 06:25:32;;;;;;;;;28.00;23.75;;;;;;;;4940348;28;45831;-71
2023/06/01 06:27:57;;;;;;;;;24.50;24.00;;;;;;;;4957281;28;45453;-71
2023/06/01 06:30:24;;;;;;;;;31.50;25.75;;;;;;;;4957568;28;45466;-70
2023/06/01 06:32:49;;;;;;;;;30.00;26.50;;;;;;;;4956701;28;46409;-70
2023/06/01 06:35:15;;;;;;;;;28.50;24.50;;;;;;;;4957072;28;45442;-70
2023/06/01 06:37:40;;;;;;;;;22.75;22.50;;;;;;;;4957286;28;45378;-72
2023/06/01 06:40:06;;;;;;;;;24.00;21.25;;;;;;;;4956755;28;45389;-71
2023/06/01 06:42:31;;;;;;;;;23.00;21.00;;;;;;;;4956721;28;45395;-71
2023/06/01 06:44:57;;;;;;;;;28.50;25.75;;;;;;;;4956917;28;45332;-71
2023/06/01 06:47:22;;;;;;;;;27.75;25.00;;;;;;;;4957007;28;45310;-70
2023/06/01 06:49:47;;;;;;;;;34.00;28.25;;;;;;;;4957125;28;45421;-71
2023/06/01 06:52:13;;;;;;;;;27.25;22.50;;;;;;;;4956844;28;46318;-70
2023/06/01 06:54:38;;;;;;;;;25.25;23.50;;;;;;;;4956917;28;45416;-70
2023/06/01 06:57:03;;;;;;;;;32.25;28.25;;;;;;;;4955497;28;45441;-70
2023/06/01 06:59:29;;;;;;;;;22.00;19.25;;;;;;;;4956963;28;45463;-70
2023/06/01 07:01:54;;;;;;;;;28.25;25.50;;;;;;;;4955902;28;45542;-70
2023/06/01 07:04:20;;;;;;;;;30.00;29.00;;;;;;;;4956801;28;45471;-70
2023/06/01 07:06:46;;;;;;;;;26.75;23.75;;;;;;;;4944621;28;45330;-70
2023/06/01 07:09:11;;;;;;;;;32.00;29.25;;;;;;;;4936891;28;45415;-69
2023/06/01 07:11:36;;;;;;;;;23.75;23.75;;;;;;;;4956257;28;45455;-70
2023/06/01 07:14:01;;;;;;;;;28.00;23.25;;;;;;;;4957055;28;45368;-70
2023/06/01 07:16:28;;;;;;;;;29.00;23.00;;;;;;;;4955525;28;45480;-70
2023/06/01 07:18:53;;;;;;;;;24.75;23.00;;;;;;;;4956093;28;45515;-70
2023/06/01 07:21:19;;;;;;;;;26.50;24.25;;;;;;;;4944365;28;47182;-70
2023/06/01 07:23:45;;;;;;;;;32.50;28.50;;;;;;;;4936683;28;45489;-71
2023/06/01 07:26:10;;;;;;;;;24.50;21.00;;;;;;;;4937396;28;45338;-71
2023/06/01 07:28:35;;;;;;;;;22.75;20.00;;;;;;;;4948903;28;45546;-71
2023/06/01 07:31:00;;;;;;;;;25.25;21.75;;;;;;;;4956085;28;47149;-72
2023/06/01 07:33:26;;;;;;;;;23.00;22.50;;;;;;;;4955922;28;45637;-72
2023/06/01 07:35:52;;;;;;;;;24.00;20.25;;;;;;;;4955060;28;45251;-72
2023/06/01 07:38:18;;;;;;;;;21.25;19.00;;;;;;;;4955448;28;45513;-73
2023/06/01 07:40:43;;;;;;;;;26.25;25.25;;;;;;;;4954609;28;48213;-72
2023/06/01 07:43:08;;;;;;;;;27.00;24.50;;;;;;;;4955602;28;45322;-72
2023/06/01 07:45:33;;;;;;;;;21.25;20.00;;;;;;;;4937140;28;45445;-72
2023/06/01 07:48:00;;;;;;;;;22.50;18.75;;;;;;;;4945807;28;45489;-71
2023/06/01 07:50:30;;;;;;;;;20.00;19.00;;;;;;;;4955057;28;47344;-70
2023/06/01 07:52:56;;;;;;;;;15.25;14.25;;;;;;;;4955631;28;45427;-71
2023/06/01 07:55:21;;;;;;;;;20.75;20.75;;;;;;;;4952811;28;45905;-71
2023/06/01 07:57:46;;;;;;;;;27.25;22.75;;;;;;;;4955322;28;45365;-71
2023/06/01 08:00:12;;;;;;;;;18.25;16.00;;;;;;;;4955335;28;46295;-73
2023/06/01 08:02:38;;;;;;;;;21.50;21.50;;;;;;;;4956006;28;45517;-71
2023/06/01 08:05:03;;;;;;;;;27.00;22.00;;;;;;;;4955153;28;45322;-71
2023/06/01 08:07:29;;;;;;;;;16.75;16.50;;;;;;;;4954811;28;45327;-71
2023/06/01 08:09:54;;;;;;;;;18.00;17.50;;;;;;;;4954214;28;45688;-72
2023/06/01 08:12:21;;;;;;;;;21.50;19.75;;;;;;;;4955468;28;45742;-70
2023/06/01 08:14:46;;;;;;;;;22.50;17.75;;;;;;;;4955963;28;45389;-71
2023/06/01 08:17:11;;;;;;;;;23.00;21.50;;;;;;;;4955383;28;45500;-71
2023/06/01 08:19:37;;;;;;;;;19.25;17.50;;;;;;;;4955347;28;47029;-70
2023/06/01 08:22:05;;;;;;;;;24.50;21.75;;;;;;;;4943079;28;45615;-71
2023/06/01 08:24:32;;;;;;;;;14.75;11.50;;;;;;;;4955570;28;45406;-71
2023/06/01 08:26:57;;;;;;;;;16.00;14.25;;;;;;;;4955606;28;45351;-71
2023/06/01 08:29:22;;;;;;;;;20.75;17.25;;;;;;;;4955090;28;46286;-71
2023/06/01 08:31:48;;;;;;;;;24.25;21.75;;;;;;;;4956886;28;45223;-71
2023/06/01 08:34:13;;;;;;;;;22.50;19.00;;;;;;;;4959310;28;45428;-70
2023/06/01 08:36:38;;;;;;;;;16.00;13.50;;;;;;;;4958628;28;45366;-71
2023/06/01 08:39:19;;;;;;;;;19.00;15.75;;;;;;;;4958502;28;45944;-71
2023/06/01 08:41:50;;;;;;;;;24.25;18.75;;;;;;;;4958877;28;45777;-71
2023/06/01 08:44:20;;;;;;;;;14.25;13.50;;;;;;;;4957528;28;45433;-71
2023/06/01 08:46:45;;;;;;;;;20.25;20.25;;;;;;;;4958554;28;45537;-71
2023/06/01 08:49:11;;;;;;;;;20.50;19.75;;;;;;;;4958138;28;45623;-71
2023/06/01 08:51:38;;;;;;;;;22.75;19.50;;;;;;;;4958627;28;45421;-71
2023/06/01 08:54:03;;;;;;;;;20.25;15.00;;;;;;;;4958612;28;45454;-72
2023/06/01 08:56:29;;;;;;;;;13.50;13.50;;;;;;;;4958522;28;45361;-71
2023/06/01 08:58:55;;;;;;;;;18.50;17.25;;;;;;;;4958814;28;46144;-71
2023/06/01 09:01:21;;;;;;;;;21.00;17.00;;;;;;;;4957169;28;45422;-71
2023/06/01 09:03:50;;;;;;;;;20.25;18.75;;;;;;;;4958440;28;45423;-71
2023/06/01 09:06:15;;;;;;;;;18.75;17.50;;;;;;;;4958473;28;45384;-71
2023/06/01 09:08:41;;;;;;;;;17.25;15.75;;;;;;;;4958230;28;45930;-72
2023/06/01 09:11:06;;;;;;;;;17.25;15.75;;;;;;;;4957106;28;45569;-72
2023/06/01 09:13:35;;;;;;;;;15.50;15.50;;;;;;;;4955983;28;45566;-71
2023/06/01 09:16:01;;;;;;;;;20.00;18.50;;;;;;;;4939708;28;45552;-71
2023/06/01 09:18:26;;;;;;;;;15.25;13.50;;;;;;;;4937303;28;48291;-72
2023/06/01 09:20:53;;;;;;;;;16.00;13.50;;;;;;;;4946278;28;45516;-73
2023/06/01 09:23:25;;;;;;;;;11.75;10.75;;;;;;;;4958163;28;45512;-72
2023/06/01 09:26:03;;;;;;;;;17.25;16.25;;;;;;;;4958392;28;45268;-72
2023/06/01 09:28:28;;;;;;;;;15.50;12.25;;;;;;;;4957895;28;45477;-72
2023/06/01 09:30:54;;;;;;;;;18.00;17.25;;;;;;;;4958688;28;45453;-73
2023/06/01 09:33:20;;;;;;;;;15.75;14.50;;;;;;;;4957281;28;45368;-72
2023/06/01 09:35:45;;;;;;;;;13.50;13.25;;;;;;;;4958139;28;45495;-73
2023/06/01 09:38:11;;;;;;;;;18.50;14.50;;;;;;;;4957891;28;45771;-73
2023/06/01 09:40:37;;;;;;;;;15.25;12.75;;;;;;;;4957842;28;45436;-73
2023/06/01 09:43:02;;;;;;;;;16.00;14.25;;;;;;;;4955799;28;45421;-73
2023/06/01 09:45:30;;;;;;;;;17.75;16.25;;;;;;;;4957928;28;45373;-73
2023/06/01 09:48:15;;;;;;;;;13.25;12.50;;;;;;;;4957259;28;45310;-73
2023/06/01 09:50:42;;;;;;;;;17.75;13.50;;;;;;;;4957884;28;45361;-72
2023/06/01 09:53:07;;;;;;;;;12.25;11.25;;;;;;;;4957756;28;45469;-73
2023/06/01 09:55:33;;;;;;;;;15.25;14.25;;;;;;;;4956511;28;45537;-72
2023/06/01 09:58:16;;;;;;;;;13.25;12.00;;;;;;;;4957438;28;46013;-73
2023/06/01 10:00:42;;;;;;;;;14.50;14.00;;;;;;;;4957313;28;45427;-72
2023/06/01 10:03:07;;;;;;;;;17.00;16.00;;;;;;;;4956930;28;45860;-73
2023/06/01 10:05:33;;;;;;;;;15.50;13.50;;;;;;;;4958011;28;45500;-72
2023/06/01 10:07:59;;;;;;;;;9.25;9.25;;;;;;;;4943632;28;47169;-73
2023/06/01 10:10:25;;;;;;;;;15.50;12.00;;;;;;;;4938417;28;45303;-73
2023/06/01 10:12:50;;;;;;;;;14.75;13.75;;;;;;;;4938373;28;45306;-73
2023/06/01 10:15:15;;;;;;;;;10.25;10.25;;;;;;;;4956704;28;45410;-72
2023/06/01 10:17:42;;;;;;;;;13.75;12.50;;;;;;;;4956648;28;45470;-72
2023/06/01 10:20:08;;;;;;;;;13.75;12.50;;;;;;;;4953882;28;45305;-73
2023/06/01 10:22:34;;;;;;;;;13.75;13.25;;;;;;;;4937671;28;45302;-73
2023/06/01 10:25:00;;;;;;;;;15.75;14.25;;;;;;;;4937906;28;45610;-73
2023/06/01 10:27:51;;;;;;;;;15.25;10.25;;;;;;;;4938245;28;46155;-73
2023/06/01 10:30:16;;;;;;;;;11.00;11.00;;;;;;;;4938050;28;45346;-72
2023/06/01 10:32:45;;;;;;;;;15.00;13.75;;;;;;;;4936167;28;45351;-74
2023/06/01 10:35:25;;;;;;;;;12.75;12.25;;;;;;;;4954075;28;45448;-73
2023/06/01 10:38:16;;;;;;;;;10.25;9.50;;;;;;;;4956765;28;47139;-73
2023/06/01 10:40:46;;;;;;;;;14.25;12.00;;;;;;;;4956950;28;45512;-73
2023/06/01 10:43:30;;;;;;;;;14.75;11.75;;;;;;;;4956884;28;45273;-72
2023/06/01 10:45:55;;;;;;;;;12.00;12.00;;;;;;;;4956765;28;45752;-73
2023/06/01 10:48:40;;;;;;;;;11.50;10.25;;;;;;;;4956722;28;45487;-73
2023/06/01 10:51:19;;;;;;;;;11.50;11.25;;;;;;;;4956542;28;45600;-73
2023/06/01 10:53:44;;;;;;;;;13.25;10.75;;;;;;;;4956754;28;45278;-73
2023/06/01 10:56:23;;;;;;;;;11.50;10.50;;;;;;;;4957031;28;45520;-73
2023/06/01 10:59:07;;;;;;;;;13.00;11.25;;;;;;;;4956383;28;46224;-73
2023/06/01 11:01:42;;;;;;;;;11.75;11.75;;;;;;;;4956710;28;45437;-73
2023/06/01 11:04:07;;;;;;;;;13.00;12.25;;;;;;;;4956905;28;45410;-73
2023/06/01 11:06:35;;;;;;;;;15.50;10.25;;;;;;;;4956555;28;45466;-73
2023/06/01 11:09:05;;;;;;;;;8.25;8.25;;;;;;;;4956463;28;45492;-72
2023/06/01 11:11:50;;;;;;;;;10.00;10.00;;;;;;;;4956286;28;45393;-73
2023/06/01 11:14:17;;;;;;;;;9.25;9.25;;;;;;;;4956451;28;45460;-71
2023/06/01 11:16:42;;;;;;;;;8.75;8.75;;;;;;;;4956329;28;45437;-71
2023/06/01 11:19:08;;;;;;;;;11.50;9.00;;;;;;;;4956486;28;45408;-72
2023/06/01 11:21:36;;;;;;;;;9.00;8.00;;;;;;;;4942541;28;45475;-70
2023/06/01 11:24:04;;;;;;;;;10.25;10.25;;;;;;;;4937194;28;45427;-71
2023/06/01 11:26:30;;;;;;;;;10.00;10.00;;;;;;;;4947296;28;45473;-72
2023/06/01 11:29:03;;;;;;;;;9.75;8.00;;;;;;;;4956306;28;45480;-73
2023/06/01 11:31:33;;;;;;;;;10.75;9.50;;;;;;;;4949661;28;45351;-74
2023/06/01 11:33:59;;;;;;;;;12.00;10.00;;;;;;;;4936998;28;45489;-73
2023/06/01 11:36:25;;;;;;;;;11.25;10.25;;;;;;;;4937029;28;45414;-73
2023/06/01 11:38:51;;;;;;;;;11.25;11.25;;;;;;;;4949907;28;46570;-73
2023/06/01 11:41:16;;;;;;;;;11.00;11.00;;;;;;;;4954464;28;45655;-73
2023/06/01 11:43:42;;;;;;;;;12.00;12.00;;;;;;;;4954995;28;45421;-73
2023/06/01 11:46:09;;;;;;;;;11.75;11.25;;;;;;;;4956552;28;45358;-72
2023/06/01 11:48:35;;;;;;;;;11.00;11.00;;;;;;;;4955539;28;46538;-72
2023/06/01 11:51:00;;;;;;;;;6.50;6.25;;;;;;;;4955685;28;45317;-73
2023/06/01 11:53:26;;;;;;;;;8.50;7.25;;;;;;;;4955712;28;45361;-72
2023/06/01 11:55:56;;;;;;;;;9.75;9.25;;;;;;;;4956132;28;45560;-73
2023/06/01 11:58:22;;;;;;;;;10.50;10.00;;;;;;;;4954140;28;46661;-72
2023/06/01 12:00:47;;;;;;;;;10.25;10.25;;;;;;;;4955958;28;45334;-73
2023/06/01 12:03:12;;;;;;;;;7.00;6.50;;;;;;;;4955865;28;45291;-73
2023/06/01 12:05:38;;;;;;;;;7.25;6.25;;;;;;;;4955985;28;45553;-72
2023/06/01 12:08:03;;;;;;;;;8.00;7.00;;;;;;;;4955737;28;47313;-73
2023/06/01 12:10:28;;;;;;;;;8.00;8.00;;;;;;;;4955842;28;45353;-73
2023/06/01 12:12:54;;;;;;;;;5.25;4.25;;;;;;;;4955716;28;45338;-73
2023/06/01 12:15:19;;;;;;;;;10.00;10.00;;;;;;;;4955669;28;45327;-72
2023/06/01 12:17:55;;;;;;;;;10.00;10.00;;;;;;;;4955394;28;45900;-71
2023/06/01 12:20:30;;;;;;;;;11.25;9.75;;;;;;;;4951827;28;45306;-73
2023/06/01 12:22:56;;;;;;;;;8.50;8.00;;;;;;;;4936475;28;45575;-72
2023/06/01 12:25:22;;;;;;;;;9.00;8.25;;;;;;;;4938517;28;45753;-73
2023/06/01 12:28:03;;;;;;;;;8.75;8.75;;;;;;;;4955086;28;45963;-73
2023/06/01 12:30:28;;;;;;;;;9.25;8.25;;;;;;;;4955404;28;45479;-73
2023/06/01 12:32:53;;;;;;;;;10.25;9.25;;;;;;;;4955670;28;45343;-73
2023/06/01 12:35:23;;;;;;;;;9.50;8.50;;;;;;;;4955691;28;45357;-73
2023/06/01 12:38:01;;;;;;;;;8.25;7.50;;;;;;;;4955301;28;45537;-73
2023/06/01 12:40:26;;;;;;;;;8.00;7.00;;;;;;;;4955117;28;45383;-72
2023/06/01 12:42:51;;;;;;;;;7.25;7.25;;;;;;;;4953835;28;45322;-73
2023/06/01 12:45:17;;;;;;;;;9.50;7.25;;;;;;;;4955369;28;45262;-72
2023/06/01 12:47:42;;;;;;;;;9.75;8.75;;;;;;;;4955557;28;45976;-72
2023/06/01 12:50:09;;;;;;;;;10.25;9.00;;;;;;;;4955013;28;45278;-72
2023/06/01 12:52:35;;;;;;;;;8.50;7.25;;;;;;;;4954988;28;45468;-72
2023/06/01 12:55:02;;;;;;;;;8.50;8.50;;;;;;;;4955816;28;45556;-72
2023/06/01 12:57:28;;;;;;;;;6.25;6.25;;;;;;;;4954624;28;45394;-73
2023/06/01 12:59:53;;;;;;;;;8.25;8.00;;;;;;;;4955022;28;45460;-73
2023/06/01 13:02:18;;;;;;;;;9.75;9.75;;;;;;;;4954323;28;45457;-73
2023/06/01 13:04:44;;;;;;;;;9.50;9.50;;;;;;;;4955028;28;45645;-72
2023/06/01 13:07:09;;;;;;;;;9.50;9.50;;;;;;;;4955016;28;45542;-72
2023/06/01 13:09:35;;;;;;;;;10.00;9.00;;;;;;;;4954980;28;45548;-72
2023/06/01 13:12:00;;;;;;;;;7.75;7.75;;;;;;;;4955360;28;45342;-72
2023/06/01 13:14:25;;;;;;;;;8.75;8.75;;;;;;;;4954996;28;45603;-73
2023/06/01 13:16:51;;;;;;;;;9.75;9.75;;;;;;;;4955073;28;45961;-72
2023/06/01 13:19:16;;;;;;;;;14.00;12.00;;;;;;;;4958456;28;45420;-72
2023/06/01 13:21:41;;;;;;;;;10.00;9.25;;;;;;;;4943806;28;45357;-73
2023/06/01 13:24:07;;;;;;;;;9.50;8.25;;;;;;;;4937757;28;45500;-72
2023/06/01 13:26:32;;;;;;;;;8.00;8.00;;;;;;;;4950539;28;46508;-73
2023/06/01 13:28:58;;;;;;;;;8.00;7.50;;;;;;;;4957850;28;45335;-73
2023/06/01 13:31:23;;;;;;;;;8.75;7.75;;;;;;;;4958375;28;45386;-72
2023/06/01 13:33:48;;;;;;;;;7.25;4.50;;;;;;;;4958113;28;45326;-72
2023/06/01 13:36:13;;;;;;;;;7.75;6.00;;;;;;;;4958605;28;46011;-73
2023/06/01 13:38:40;;;;;;;;;9.25;9.25;;;;;;;;4957610;28;45337;-73
2023/06/01 13:41:05;;;;;;;;;9.25;9.25;;;;;;;;4957992;28;45318;-73
2023/06/01 13:43:30;;;;;;;;;7.00;7.00;;;;;;;;4957891;28;45489;-73
2023/06/01 13:45:56;;;;;;;;;8.25;8.25;;;;;;;;4957737;28;47031;-73
2023/06/01 13:48:22;;;;;;;;;10.50;10.50;;;;;;;;4957808;28;45404;-70
2023/06/01 13:50:47;;;;;;;;;7.25;7.25;;;;;;;;4957955;28;45465;-73
2023/06/01 13:53:12;;;;;;;;;9.25;7.25;;;;;;;;4957921;28;45355;-72
2023/06/01 13:55:39;;;;;;;;;8.75;7.50;;;;;;;;4957460;28;47356;-72
2023/06/01 13:58:04;;;;;;;;;9.50;7.25;;;;;;;;4957967;28;45433;-72
2023/06/01 14:00:29;;;;;;;;;7.75;6.00;;;;;;;;4957716;28;45477;-71
2023/06/01 14:02:54;;;;;;;;;5.25;5.25;;;;;;;;4957504;28;45752;-72
2023/06/01 14:05:20;;;;;;;;;7.00;7.00;;;;;;;;4956153;28;45539;-72
2023/06/01 14:07:45;;;;;;;;;11.75;8.75;;;;;;;;4956616;28;45385;-73
2023/06/01 14:10:13;;;;;;;;;11.25;9.00;;;;;;;;4956985;28;45342;-71
2023/06/01 14:12:38;;;;;;;;;8.75;8.75;;;;;;;;4957148;28;45270;-72
2023/06/01 14:15:04;;;;;;;;;8.00;8.00;;;;;;;;4957416;28;46195;-72
2023/06/01 14:17:29;;;;;;;;;9.50;8.00;;;;;;;;4957446;28;45614;-71
2023/06/01 14:19:54;;;;;;;;;6.00;6.00;;;;;;;;4956985;28;45303;-71
2023/06/01 14:22:20;;;;;;;;;9.00;9.00;;;;;;;;4937931;28;45529;-72
2023/06/01 14:24:45;;;;;;;;;8.25;8.25;;;;;;;;4938139;28;47027;-72